createdAt,value
2022-10-20T00:00:54.652Z,7.94
2022-10-20T00:01:54.641Z,7.89
2022-10-20T00:02:54.694Z,7.87
2022-10-20T00:03:54.648Z,7.85
2022-10-20T00:04:54.610Z,7.85
2022-10-20T00:05:54.586Z,7.87
2022-10-20T00:06:54.578Z,7.93
2022-10-20T00:07:54.565Z,7.96
2022-10-20T00:08:54.635Z,7.92
2022-10-20T00:09:54.535Z,7.92
2022-10-20T00:10:54.526Z,7.97
2022-10-20T00:11:54.514Z,7.99
2022-10-20T00:12:54.495Z,7.94
2022-10-20T00:13:54.501Z,7.89
2022-10-20T00:14:54.485Z,7.84
2022-10-20T00:15:54.464Z,7.84
2022-10-20T00:16:54.445Z,7.82
2022-10-20T00:17:54.436Z,7.72
2022-10-20T00:18:54.433Z,7.72
2022-10-20T00:19:54.422Z,7.77
2022-10-20T00:20:54.389Z,7.84
2022-10-20T00:21:54.386Z,7.85
2022-10-20T00:22:54.394Z,7.84
2022-10-20T00:23:54.375Z,7.85
2022-10-20T00:24:54.373Z,7.85
2022-10-20T00:25:54.366Z,7.85
2022-10-20T00:26:54.314Z,7.89
2022-10-20T00:27:54.309Z,7.89
2022-10-20T00:28:54.303Z,7.84
2022-10-20T00:29:54.283Z,7.78
2022-10-20T00:30:54.266Z,7.77
2022-10-20T00:31:54.257Z,7.82
2022-10-20T00:32:54.247Z,7.87
2022-10-20T00:33:54.237Z,7.84
2022-10-20T00:34:54.213Z,7.85
2022-10-20T00:35:54.203Z,7.89
2022-10-20T00:36:54.191Z,7.85
2022-10-20T00:37:54.175Z,7.71
2022-10-20T00:38:54.179Z,7.67
2022-10-20T00:39:54.166Z,7.67
2022-10-20T00:40:54.139Z,7.63
2022-10-20T00:41:54.125Z,7.60
2022-10-20T00:42:54.111Z,7.60
2022-10-20T00:43:54.115Z,7.60
2022-10-20T00:44:54.098Z,7.56
2022-10-20T00:45:54.076Z,7.52
2022-10-20T00:46:54.057Z,7.49
2022-10-20T00:47:54.056Z,7.47
2022-10-20T00:48:54.050Z,7.55
2022-10-20T00:49:54.020Z,7.60
2022-10-20T00:50:54.011Z,7.56
2022-10-20T00:51:53.997Z,7.53
2022-10-20T00:52:53.986Z,7.52
2022-10-20T00:53:53.977Z,7.55
2022-10-20T00:54:53.967Z,7.52
2022-10-20T00:55:53.945Z,7.47
2022-10-20T00:56:53.959Z,7.52
2022-10-20T00:57:53.923Z,7.53
2022-10-20T00:58:53.901Z,7.55
2022-10-20T00:59:53.918Z,7.53
2022-10-20T01:00:53.871Z,7.52
2022-10-20T01:01:53.955Z,7.52
2022-10-20T01:02:53.853Z,7.55
2022-10-20T01:03:53.860Z,7.56
2022-10-20T01:04:53.834Z,7.55
2022-10-20T01:05:53.812Z,7.50
2022-10-20T01:06:53.800Z,7.52
2022-10-20T01:07:53.791Z,7.56
2022-10-20T01:08:53.809Z,7.60
2022-10-20T01:09:53.785Z,7.62
2022-10-20T01:10:53.744Z,7.59
2022-10-20T01:11:53.739Z,7.55
2022-10-20T01:12:53.713Z,7.56
2022-10-20T01:13:53.710Z,7.60
2022-10-20T01:14:53.715Z,7.53
2022-10-20T01:15:53.681Z,7.53
2022-10-20T01:16:53.671Z,7.53
2022-10-20T01:17:53.665Z,7.55
2022-10-20T01:18:53.639Z,7.55
2022-10-20T01:19:53.663Z,7.55
2022-10-20T01:20:53.612Z,7.53
2022-10-20T01:21:53.600Z,7.56
2022-10-20T01:22:53.591Z,7.59
2022-10-20T01:23:53.585Z,7.58
2022-10-20T01:24:53.595Z,7.56
2022-10-20T01:25:53.562Z,7.53
2022-10-20T01:26:53.534Z,7.56
2022-10-20T01:27:53.524Z,7.59
2022-10-20T01:28:53.509Z,7.60
2022-10-20T01:29:53.519Z,7.59
2022-10-20T01:30:53.510Z,7.60
2022-10-20T01:31:53.470Z,7.60
2022-10-20T01:32:53.458Z,7.56
2022-10-20T01:33:53.468Z,7.50
2022-10-20T01:34:53.439Z,7.49
2022-10-20T01:35:53.427Z,7.49
2022-10-20T01:36:53.423Z,7.52
2022-10-20T01:37:53.560Z,7.50
2022-10-20T01:38:53.378Z,7.40
2022-10-20T01:39:53.382Z,7.41
2022-10-20T01:40:53.354Z,7.47
2022-10-20T01:41:53.374Z,7.53
2022-10-20T01:42:53.333Z,7.45
2022-10-20T01:43:53.319Z,7.45
2022-10-20T01:44:53.305Z,7.47
2022-10-20T01:45:53.289Z,7.49
2022-10-20T01:46:53.305Z,7.52
2022-10-20T01:47:53.266Z,7.52
2022-10-20T01:48:53.248Z,7.44
2022-10-20T01:49:53.256Z,7.40
2022-10-20T01:50:53.219Z,7.37
2022-10-20T01:51:53.223Z,7.29
2022-10-20T01:52:53.248Z,7.27
2022-10-20T01:53:53.187Z,7.27
2022-10-20T01:54:53.192Z,7.19
2022-10-20T01:55:53.164Z,7.22
2022-10-20T01:56:53.151Z,7.22
2022-10-20T01:57:53.143Z,7.20
2022-10-20T01:58:53.120Z,7.17
2022-10-20T01:59:53.120Z,7.15
2022-10-20T02:00:53.159Z,7.16
2022-10-20T02:01:53.113Z,7.16
2022-10-20T02:02:53.079Z,7.17
2022-10-20T02:03:53.053Z,7.19
2022-10-20T02:04:53.051Z,7.20
2022-10-20T02:05:53.047Z,7.20
2022-10-20T02:06:53.022Z,7.17
2022-10-20T02:07:53.005Z,7.15
2022-10-20T02:08:53.029Z,7.12
2022-10-20T02:09:52.987Z,7.05
2022-10-20T02:10:52.961Z,7.07
2022-10-20T02:11:52.960Z,7.07
2022-10-20T02:12:52.944Z,6.99
2022-10-20T02:13:52.935Z,6.95
2022-10-20T02:14:52.920Z,6.95
2022-10-20T02:15:52.891Z,6.86
2022-10-20T02:16:52.897Z,6.83
2022-10-20T02:17:52.870Z,6.86
2022-10-20T02:18:52.901Z,6.91
2022-10-20T02:19:52.854Z,6.87
2022-10-20T02:20:52.847Z,6.87
2022-10-20T02:21:52.812Z,6.80
2022-10-20T02:22:52.811Z,6.79
2022-10-20T02:23:52.799Z,6.84
2022-10-20T02:24:52.781Z,6.83
2022-10-20T02:25:52.778Z,6.84
2022-10-20T02:26:52.747Z,6.90
2022-10-20T02:27:52.761Z,6.91
2022-10-20T02:28:52.747Z,6.94
2022-10-20T02:29:52.720Z,6.94
2022-10-20T02:30:52.702Z,6.91
2022-10-20T02:31:52.697Z,6.94
2022-10-20T02:32:52.684Z,6.89
2022-10-20T02:33:52.678Z,6.83
2022-10-20T02:34:52.654Z,6.77
2022-10-20T02:35:52.634Z,6.79
2022-10-20T02:36:52.629Z,6.80
2022-10-20T02:37:52.622Z,6.80
2022-10-20T02:38:52.621Z,6.83
2022-10-20T02:39:52.593Z,6.89
2022-10-20T02:40:52.568Z,6.81
2022-10-20T02:41:52.561Z,6.69
2022-10-20T02:42:52.545Z,6.65
2022-10-20T02:43:52.570Z,6.61
2022-10-20T02:44:52.531Z,6.61
2022-10-20T02:45:52.502Z,6.62
2022-10-20T02:46:52.499Z,6.63
2022-10-20T02:47:52.513Z,6.63
2022-10-20T02:48:52.482Z,6.63
2022-10-20T02:49:52.448Z,6.62
2022-10-20T02:50:52.439Z,6.59
2022-10-20T02:51:52.425Z,6.61
2022-10-20T02:52:52.415Z,6.63
2022-10-20T02:53:52.436Z,6.65
2022-10-20T02:54:52.384Z,6.66
2022-10-20T02:55:52.366Z,6.68
2022-10-20T02:56:52.367Z,6.71
2022-10-20T02:57:52.359Z,6.63
2022-10-20T02:58:52.353Z,6.59
2022-10-20T02:59:52.320Z,6.61
2022-10-20T03:00:52.319Z,6.61
2022-10-20T03:01:52.409Z,6.61
2022-10-20T03:02:52.300Z,6.56
2022-10-20T03:03:52.277Z,6.51
2022-10-20T03:04:52.253Z,6.46
2022-10-20T03:05:52.232Z,6.46
2022-10-20T03:06:52.252Z,6.40
2022-10-20T03:07:52.212Z,6.40
2022-10-20T03:08:52.266Z,6.41
2022-10-20T03:09:52.191Z,6.43
2022-10-20T03:10:52.219Z,6.44
2022-10-20T03:11:52.155Z,6.47
2022-10-20T03:12:52.194Z,6.38
2022-10-20T03:13:52.172Z,6.40
2022-10-20T03:14:52.133Z,6.44
2022-10-20T03:15:52.101Z,6.46
2022-10-20T03:16:52.099Z,6.51
2022-10-20T03:17:52.078Z,6.51
2022-10-20T03:18:52.089Z,6.50
2022-10-20T03:19:52.069Z,6.50
2022-10-20T03:20:52.051Z,6.51
2022-10-20T03:21:52.029Z,6.51
2022-10-20T03:22:52.040Z,6.47
2022-10-20T03:23:52.034Z,6.43
2022-10-20T03:24:51.998Z,6.44
2022-10-20T03:25:51.979Z,6.43
2022-10-20T03:26:51.978Z,6.43
2022-10-20T03:27:51.954Z,6.44
2022-10-20T03:28:51.981Z,6.43
2022-10-20T03:29:51.918Z,6.41
2022-10-20T03:30:51.921Z,6.38
2022-10-20T03:31:51.905Z,6.41
2022-10-20T03:32:51.885Z,6.41
2022-10-20T03:33:51.901Z,6.41
2022-10-20T03:34:51.867Z,6.40
2022-10-20T03:35:51.844Z,6.43
2022-10-20T03:36:51.847Z,6.46
2022-10-20T03:37:51.818Z,6.43
2022-10-20T03:38:51.827Z,6.41
2022-10-20T03:39:51.828Z,6.38
2022-10-20T03:40:51.828Z,6.38
2022-10-20T03:41:51.804Z,6.38
2022-10-20T03:42:51.767Z,6.38
2022-10-20T03:43:51.774Z,6.36
2022-10-20T03:44:51.737Z,6.35
2022-10-20T03:45:54.537Z,6.40
2022-10-20T03:46:51.708Z,6.43
2022-10-20T03:47:51.716Z,6.41
2022-10-20T03:48:51.695Z,6.41
2022-10-20T03:49:51.730Z,6.43
2022-10-20T03:50:51.652Z,6.46
2022-10-20T03:51:51.635Z,6.44
2022-10-20T03:52:51.672Z,6.46
2022-10-20T03:53:51.622Z,6.43
2022-10-20T03:54:51.606Z,6.43
2022-10-20T03:55:51.588Z,6.43
2022-10-20T03:56:51.585Z,6.44
2022-10-20T03:57:51.586Z,6.43
2022-10-20T03:58:51.594Z,6.44
2022-10-20T03:59:51.531Z,6.43
2022-10-20T04:00:51.522Z,6.44
2022-10-20T04:01:51.572Z,6.41
2022-10-20T04:02:51.507Z,6.36
2022-10-20T04:03:51.489Z,6.33
2022-10-20T04:04:51.494Z,6.29
2022-10-20T04:05:51.459Z,6.22
2022-10-20T04:06:51.441Z,6.14
2022-10-20T04:07:51.440Z,6.11
2022-10-20T04:08:51.465Z,6.11
2022-10-20T04:09:51.398Z,6.14
2022-10-20T04:10:51.392Z,6.11
2022-10-20T04:11:51.375Z,6.07
2022-10-20T04:12:51.371Z,6.04
2022-10-20T04:13:51.389Z,6.04
2022-10-20T04:14:51.347Z,6.03
2022-10-20T04:15:51.338Z,6.01
2022-10-20T04:16:51.310Z,6.07
2022-10-20T04:17:51.289Z,6.10
2022-10-20T04:18:51.333Z,6.09
2022-10-20T04:19:51.274Z,6.10
2022-10-20T04:20:51.265Z,6.11
2022-10-20T04:21:51.236Z,6.11
2022-10-20T04:22:51.238Z,6.13
2022-10-20T04:23:51.254Z,6.11
2022-10-20T04:24:51.210Z,6.06
2022-10-20T04:25:51.196Z,6.06
2022-10-20T04:26:51.207Z,6.07
2022-10-20T04:27:51.162Z,6.07
2022-10-20T04:28:51.166Z,6.09
2022-10-20T04:29:51.149Z,6.04
2022-10-20T04:30:51.123Z,6.00
2022-10-20T04:31:51.105Z,6.03
2022-10-20T04:32:51.112Z,6.01
2022-10-20T04:33:51.093Z,6.00
2022-10-20T04:34:51.099Z,5.96
2022-10-20T04:36:51.050Z,5.98
2022-10-20T04:37:51.026Z,5.95
2022-10-20T04:38:51.045Z,5.93
2022-10-20T04:39:50.995Z,5.95
2022-10-20T04:40:50.993Z,5.89
2022-10-20T04:41:50.973Z,5.86
2022-10-20T04:42:50.980Z,5.89
2022-10-20T04:43:50.996Z,5.89
2022-10-20T04:44:51.000Z,5.89
2022-10-20T04:45:50.920Z,5.82
2022-10-20T04:46:50.911Z,5.85
2022-10-20T04:47:50.898Z,5.83
2022-10-20T04:48:50.897Z,5.86
2022-10-20T04:49:50.866Z,5.89
2022-10-20T04:50:50.873Z,5.92
2022-10-20T04:51:50.845Z,5.85
2022-10-20T04:52:50.829Z,5.83
2022-10-20T04:53:50.817Z,5.85
2022-10-20T04:54:50.833Z,5.81
2022-10-20T04:55:50.779Z,5.77
2022-10-20T04:56:50.772Z,5.75
2022-10-20T04:57:50.765Z,5.75
2022-10-20T04:58:50.760Z,5.75
2022-10-20T04:59:50.747Z,5.78
2022-10-20T05:00:50.725Z,5.82
2022-10-20T05:01:50.781Z,5.82
2022-10-20T05:02:50.690Z,5.83
2022-10-20T05:03:50.693Z,5.83
2022-10-20T05:04:50.676Z,5.88
2022-10-20T05:05:50.664Z,5.91
2022-10-20T05:06:50.639Z,5.92
2022-10-20T05:07:50.622Z,5.85
2022-10-20T05:08:50.683Z,5.86
2022-10-20T05:09:50.615Z,5.83
2022-10-20T05:10:50.595Z,5.89
2022-10-20T05:11:50.569Z,5.88
2022-10-20T05:12:50.555Z,5.78
2022-10-20T05:13:50.577Z,5.77
2022-10-20T05:14:50.532Z,5.81
2022-10-20T05:15:50.521Z,5.83
2022-10-20T05:16:50.499Z,5.82
2022-10-20T05:17:50.492Z,5.82
2022-10-20T05:18:50.513Z,5.77
2022-10-20T05:19:50.464Z,5.83
2022-10-20T05:21:07.783Z,5.85
2022-10-20T05:21:51.433Z,5.88
2022-10-20T05:22:50.426Z,5.86
2022-10-20T05:23:50.427Z,5.81
2022-10-20T05:24:50.401Z,5.77
2022-10-20T05:25:50.412Z,5.77
2022-10-20T05:26:50.367Z,5.75
2022-10-20T05:27:50.374Z,5.81
2022-10-20T05:28:50.342Z,5.83
2022-10-20T05:29:50.343Z,5.88
2022-10-20T05:30:50.343Z,5.89
2022-10-20T05:31:50.294Z,5.89
2022-10-20T05:32:50.279Z,5.92
2022-10-20T05:33:50.281Z,5.86
2022-10-20T05:34:50.279Z,5.89
2022-10-20T05:35:50.240Z,5.91
2022-10-20T05:36:50.233Z,5.89
2022-10-20T05:37:50.210Z,5.88
2022-10-20T05:38:50.203Z,5.83
2022-10-20T05:39:50.230Z,5.86
2022-10-20T05:40:50.176Z,5.86
2022-10-20T05:41:50.153Z,5.85
2022-10-20T05:42:50.334Z,5.86
2022-10-20T05:43:50.142Z,5.88
2022-10-20T05:44:50.131Z,5.91
2022-10-20T05:45:50.102Z,5.88
2022-10-20T05:46:50.106Z,5.89
2022-10-20T05:47:50.083Z,5.91
2022-10-20T05:48:50.072Z,5.93
2022-10-20T05:49:50.060Z,5.95
2022-10-20T05:50:50.060Z,5.93
2022-10-20T05:51:50.038Z,5.96
2022-10-20T05:52:50.018Z,5.98
2022-10-20T05:53:49.990Z,5.98
2022-10-20T05:54:50.011Z,6.03
2022-10-20T05:55:49.968Z,6.04
2022-10-20T05:56:49.969Z,6.06
2022-10-20T05:57:49.941Z,6.10
2022-10-20T05:58:49.924Z,6.13
2022-10-20T05:59:49.955Z,6.06
2022-10-20T06:00:49.926Z,6.10
2022-10-20T06:01:49.906Z,6.07
2022-10-20T06:02:49.876Z,6.09
2022-10-20T06:03:49.867Z,6.10
2022-10-20T06:04:49.867Z,6.13
2022-10-20T06:05:49.871Z,6.16
2022-10-20T06:06:49.834Z,6.16
2022-10-20T06:07:49.798Z,6.18
2022-10-20T06:08:49.854Z,6.21
2022-10-20T06:09:49.797Z,6.25
2022-10-20T06:10:49.763Z,6.30
2022-10-20T06:11:49.745Z,6.29
2022-10-20T06:12:49.765Z,6.32
2022-10-20T06:13:52.650Z,6.29
2022-10-20T06:14:49.727Z,6.33
2022-10-20T06:15:49.705Z,6.35
2022-10-20T06:16:50.198Z,6.36
2022-10-20T06:17:49.673Z,6.43
2022-10-20T06:18:49.663Z,6.48
2022-10-20T06:19:49.655Z,6.43
2022-10-20T06:20:49.633Z,6.43
2022-10-20T06:21:49.774Z,6.46
2022-10-20T06:22:49.606Z,6.46
2022-10-20T06:23:49.598Z,6.48
2022-10-20T06:24:49.606Z,6.51
2022-10-20T06:25:49.586Z,6.53
2022-10-20T06:26:49.558Z,6.54
2022-10-20T06:27:49.557Z,6.53
2022-10-20T06:28:49.526Z,6.50
2022-10-20T06:29:49.535Z,6.48
2022-10-20T06:30:49.496Z,6.50
2022-10-20T06:31:49.511Z,6.54
2022-10-20T06:32:49.485Z,6.62
2022-10-20T06:33:49.460Z,6.58
2022-10-20T06:34:49.463Z,6.54
2022-10-20T06:35:49.432Z,6.59
2022-10-20T06:36:49.442Z,6.63
2022-10-20T06:37:49.411Z,6.63
2022-10-20T06:38:49.444Z,6.63
2022-10-20T06:39:49.402Z,6.66
2022-10-20T06:40:49.366Z,6.66
2022-10-20T06:41:49.367Z,6.69
2022-10-20T06:42:49.399Z,6.71
2022-10-20T06:43:49.330Z,6.72
2022-10-20T06:44:49.325Z,6.69
2022-10-20T06:45:49.302Z,6.71
2022-10-20T06:46:49.318Z,6.71
2022-10-20T06:47:49.276Z,6.71
2022-10-20T06:48:49.271Z,6.77
2022-10-20T06:49:49.273Z,6.79
2022-10-20T06:50:49.250Z,6.80
2022-10-20T06:51:49.245Z,6.84
2022-10-20T06:52:49.222Z,6.87
2022-10-20T06:53:49.236Z,6.89
2022-10-20T06:54:49.218Z,6.89
2022-10-20T06:55:49.174Z,6.94
2022-10-20T06:56:49.181Z,6.98
2022-10-20T06:57:49.152Z,7.02
2022-10-20T06:58:49.135Z,7.09
2022-10-20T06:59:49.139Z,7.19
2022-10-20T07:00:49.133Z,7.31
2022-10-20T07:01:49.147Z,7.34
2022-10-20T07:02:49.091Z,7.38
2022-10-20T07:03:49.084Z,7.38
2022-10-20T07:04:49.097Z,7.37
2022-10-20T07:05:49.042Z,7.40
2022-10-20T07:06:49.033Z,7.42
2022-10-20T07:07:49.025Z,7.52
2022-10-20T07:08:49.073Z,7.55
2022-10-20T07:09:49.018Z,7.59
2022-10-20T07:10:48.977Z,7.62
2022-10-20T07:11:48.966Z,7.62
2022-10-20T07:12:49.205Z,7.67
2022-10-20T07:13:48.955Z,7.74
2022-10-20T07:14:48.990Z,7.79
2022-10-20T07:15:48.915Z,7.79
2022-10-20T07:16:48.897Z,7.87
2022-10-20T07:17:48.886Z,7.87
2022-10-20T07:18:48.875Z,7.87
2022-10-20T07:19:48.911Z,7.90
2022-10-20T07:20:48.843Z,7.97
2022-10-20T07:21:48.839Z,7.97
2022-10-20T07:22:48.823Z,8.02
2022-10-20T07:23:48.815Z,7.94
2022-10-20T07:24:48.813Z,7.92
2022-10-20T07:25:48.780Z,7.99
2022-10-20T07:26:48.772Z,8.04
2022-10-20T07:27:48.767Z,8.12
2022-10-20T07:28:53.188Z,8.18
2022-10-20T07:29:49.764Z,8.22
2022-10-20T07:30:48.734Z,8.22
2022-10-20T07:31:48.713Z,8.30
2022-10-20T07:32:48.690Z,8.37
2022-10-20T07:34:06.698Z,8.36
2022-10-20T07:34:49.706Z,8.36
2022-10-20T07:35:48.658Z,8.44
2022-10-20T07:36:48.643Z,8.39
2022-10-20T07:37:48.631Z,8.44
2022-10-20T07:38:48.635Z,8.50
2022-10-20T07:39:48.614Z,8.50
2022-10-20T07:40:48.598Z,8.53
2022-10-20T07:41:48.743Z,8.54
2022-10-20T07:42:48.568Z,8.58
2022-10-20T07:43:48.558Z,8.63
2022-10-20T07:44:48.543Z,8.65
2022-10-20T07:45:48.541Z,8.75
2022-10-20T07:46:48.522Z,8.75
2022-10-20T07:47:48.501Z,8.81
2022-10-20T07:48:48.477Z,8.87
2022-10-20T07:49:48.480Z,8.91
2022-10-20T07:50:48.453Z,8.94
2022-10-20T07:51:48.470Z,8.99
2022-10-20T07:52:48.442Z,9.06
2022-10-20T07:53:48.447Z,9.10
2022-10-20T07:54:48.414Z,9.10
2022-10-20T07:55:48.384Z,9.10
2022-10-20T07:56:48.392Z,9.15
2022-10-20T07:57:48.357Z,9.18
2022-10-20T07:58:48.343Z,9.23
2022-10-20T07:59:48.363Z,9.23
2022-10-20T08:00:48.321Z,9.21
2022-10-20T08:01:48.341Z,9.24
2022-10-20T08:02:48.311Z,9.31
2022-10-20T08:03:48.295Z,9.35
2022-10-20T08:04:48.357Z,9.40
2022-10-20T08:05:48.264Z,9.42
2022-10-20T08:06:48.252Z,9.48
2022-10-20T08:07:48.240Z,9.52
2022-10-20T08:08:48.265Z,9.60
2022-10-20T08:09:48.242Z,9.63
2022-10-20T08:10:48.191Z,9.71
2022-10-20T08:11:51.445Z,9.76
2022-10-20T08:12:49.170Z,9.89
2022-10-20T08:13:48.309Z,9.93
2022-10-20T08:14:50.300Z,9.96
2022-10-20T08:15:49.005Z,10.00
2022-10-20T08:16:49.761Z,9.97
2022-10-20T08:17:48.121Z,9.96
2022-10-20T08:18:49.640Z,10.01
2022-10-20T08:19:51.772Z,10.04
2022-10-20T08:20:48.062Z,10.01
2022-10-20T08:21:48.060Z,10.01
2022-10-20T08:22:48.033Z,10.07
2022-10-20T08:23:48.019Z,10.10
2022-10-20T08:24:48.029Z,10.10
2022-10-20T08:25:48.022Z,10.07
2022-10-20T08:26:48.004Z,10.10
2022-10-20T08:27:47.989Z,10.10
2022-10-20T08:28:47.951Z,10.14
2022-10-20T08:29:55.285Z,10.18
2022-10-20T08:30:48.926Z,10.22
2022-10-20T08:31:47.938Z,10.21
2022-10-20T08:32:47.907Z,10.24
2022-10-20T08:33:52.255Z,10.24
2022-10-20T08:34:47.900Z,10.28
2022-10-20T08:35:47.869Z,10.22
2022-10-20T08:36:47.867Z,10.25
2022-10-20T08:37:47.842Z,10.30
2022-10-20T08:38:47.815Z,10.34
2022-10-20T08:39:47.841Z,10.39
2022-10-20T08:40:47.801Z,10.33
2022-10-20T08:42:48.778Z,10.32
2022-10-20T08:43:47.870Z,10.33
2022-10-20T08:44:47.759Z,10.37
2022-10-20T08:45:47.738Z,10.39
2022-10-20T08:46:47.977Z,10.42
2022-10-20T08:47:47.713Z,10.43
2022-10-20T08:48:47.710Z,10.42
2022-10-20T08:49:47.701Z,10.43
2022-10-20T08:50:47.667Z,10.46
2022-10-20T08:51:47.650Z,10.53
2022-10-20T08:52:47.637Z,10.56
2022-10-20T08:53:47.642Z,10.58
2022-10-20T08:54:52.514Z,10.58
2022-10-20T08:55:47.618Z,10.63
2022-10-20T08:56:47.584Z,10.66
2022-10-20T08:57:47.636Z,10.68
2022-10-20T08:58:47.553Z,10.66
2022-10-20T08:59:47.558Z,10.66
2022-10-20T09:00:47.541Z,10.63
2022-10-20T09:01:47.594Z,10.68
2022-10-20T09:02:47.520Z,10.74
2022-10-20T09:03:47.491Z,10.84
2022-10-20T09:04:47.507Z,10.91
2022-10-20T09:05:47.464Z,10.91
2022-10-20T09:06:47.463Z,10.98
2022-10-20T09:07:47.447Z,10.98
2022-10-20T09:08:47.491Z,10.92
2022-10-20T09:09:47.440Z,10.92
2022-10-20T09:10:47.399Z,10.99
2022-10-20T09:11:47.387Z,10.99
2022-10-20T09:12:47.374Z,11.10
2022-10-20T09:14:47.366Z,11.19
2022-10-20T09:15:47.357Z,11.24
2022-10-20T09:17:02.361Z,11.32
2022-10-20T09:17:48.326Z,11.29
2022-10-20T09:18:47.375Z,11.25
2022-10-20T09:19:47.300Z,11.19
2022-10-20T09:20:47.279Z,11.10
2022-10-20T09:21:47.259Z,11.07
2022-10-20T09:22:47.253Z,11.13
2022-10-20T09:23:47.295Z,10.98
2022-10-20T09:24:47.223Z,11.01
2022-10-20T09:25:47.225Z,11.02
2022-10-20T09:27:02.444Z,11.14
2022-10-20T09:27:48.191Z,11.28
2022-10-20T09:29:02.118Z,11.38
2022-10-20T09:29:48.175Z,11.39
2022-10-20T09:30:47.139Z,11.47
2022-10-20T09:31:47.135Z,11.53
2022-10-20T09:32:48.032Z,11.64
2022-10-20T09:33:48.114Z,11.64
2022-10-20T09:34:47.087Z,11.77
2022-10-20T09:35:47.070Z,11.86
2022-10-20T09:36:47.050Z,11.99
2022-10-20T09:37:47.069Z,12.02
2022-10-20T09:38:47.034Z,11.83
2022-10-20T09:39:50.167Z,11.65
2022-10-20T09:40:48.018Z,11.65
2022-10-20T09:41:46.989Z,11.56
2022-10-20T09:42:47.023Z,11.65
2022-10-20T09:43:46.983Z,11.74
2022-10-20T09:44:46.950Z,11.77
2022-10-20T09:45:46.960Z,11.68
2022-10-20T09:46:46.950Z,11.67
2022-10-20T09:47:46.916Z,11.83
2022-10-20T09:48:46.895Z,12.01
2022-10-20T09:49:46.904Z,12.12
2022-10-20T09:50:46.891Z,12.24
2022-10-20T09:51:46.916Z,12.37
2022-10-20T09:52:46.856Z,12.30
2022-10-20T09:53:46.850Z,12.44
2022-10-20T09:54:46.821Z,12.51
2022-10-20T09:55:46.831Z,12.63
2022-10-20T09:56:46.791Z,12.64
2022-10-20T09:57:46.778Z,12.52
2022-10-20T09:58:46.783Z,12.59
2022-10-20T09:59:46.766Z,12.52
2022-10-20T10:00:46.802Z,12.62
2022-10-20T10:01:46.725Z,12.57
2022-10-20T10:02:46.709Z,12.46
2022-10-20T10:03:46.701Z,12.51
2022-10-20T10:04:46.697Z,12.66
2022-10-20T10:05:46.722Z,12.75
2022-10-20T10:06:46.661Z,12.69
2022-10-20T10:07:46.646Z,12.67
2022-10-20T10:08:46.686Z,12.77
2022-10-20T10:09:46.659Z,12.77
2022-10-20T10:10:46.607Z,12.78
2022-10-20T10:11:46.600Z,12.77
2022-10-20T10:12:46.572Z,12.79
2022-10-20T10:13:46.660Z,12.81
2022-10-20T10:14:46.558Z,12.71
2022-10-20T10:15:46.564Z,12.60
2022-10-20T10:16:46.526Z,12.67
2022-10-20T10:17:46.520Z,12.84
2022-10-20T10:18:48.499Z,12.95
2022-10-20T10:19:46.487Z,12.95
2022-10-20T10:20:46.505Z,13.04
2022-10-20T10:21:46.480Z,13.06
2022-10-20T10:22:46.456Z,13.06
2022-10-20T10:23:46.485Z,13.06
2022-10-20T10:24:46.486Z,13.07
2022-10-20T10:25:46.461Z,13.21
2022-10-20T10:26:46.401Z,13.37
2022-10-20T10:27:46.382Z,13.33
2022-10-20T10:28:46.373Z,13.32
2022-10-20T10:29:46.362Z,13.41
2022-10-20T10:30:49.443Z,13.54
2022-10-20T10:31:46.342Z,13.37
2022-10-20T10:32:46.328Z,13.22
2022-10-20T10:33:46.310Z,13.44
2022-10-20T10:34:46.290Z,13.59
2022-10-20T10:35:46.286Z,13.52
2022-10-20T10:36:46.267Z,13.70
2022-10-20T10:37:46.251Z,13.94
2022-10-20T10:38:46.240Z,14.06
2022-10-20T10:39:46.239Z,13.95
2022-10-20T10:40:46.266Z,13.80
2022-10-20T10:41:46.222Z,13.92
2022-10-20T10:42:46.185Z,14.07
2022-10-20T10:43:48.607Z,13.94
2022-10-20T10:44:46.226Z,13.89
2022-10-20T10:45:46.172Z,13.91
2022-10-20T10:46:46.137Z,13.81
2022-10-20T10:47:46.465Z,13.71
2022-10-20T10:48:46.127Z,13.54
2022-10-20T10:49:46.099Z,13.49
2022-10-20T10:50:46.081Z,13.52
2022-10-20T10:51:46.057Z,13.41
2022-10-20T10:52:46.053Z,13.21
2022-10-20T10:53:46.054Z,12.99
2022-10-20T10:54:46.034Z,12.93
2022-10-20T10:55:49.617Z,12.87
2022-10-20T10:56:45.988Z,13.02
2022-10-20T10:57:46.005Z,13.21
2022-10-20T10:58:45.964Z,13.38
2022-10-20T10:59:45.985Z,13.61
2022-10-20T11:00:45.983Z,13.67
2022-10-20T11:01:45.917Z,13.69
2022-10-20T11:02:45.932Z,13.79
2022-10-20T11:03:45.895Z,13.83
2022-10-20T11:04:46.103Z,13.81
2022-10-20T11:05:45.871Z,13.88
2022-10-20T11:06:45.864Z,13.95
2022-10-20T11:07:45.838Z,14.06
2022-10-20T11:08:45.906Z,13.83
2022-10-20T11:09:45.816Z,13.61
2022-10-20T11:10:45.825Z,13.65
2022-10-20T11:11:45.810Z,13.76
2022-10-20T11:12:45.781Z,13.69
2022-10-20T11:13:45.757Z,13.56
2022-10-20T11:14:45.752Z,13.49
2022-10-20T11:15:45.736Z,13.44
2022-10-20T11:16:45.758Z,13.25
2022-10-20T11:17:45.716Z,13.18
2022-10-20T11:18:45.710Z,13.04
2022-10-20T11:19:45.679Z,13.04
2022-10-20T11:20:45.674Z,12.96
2022-10-20T11:21:45.670Z,12.97
2022-10-20T11:22:45.656Z,13.09
2022-10-20T11:23:45.626Z,13.21
2022-10-20T11:24:45.626Z,13.14
2022-10-20T11:25:45.617Z,13.06
2022-10-20T11:26:45.605Z,13.09
2022-10-20T11:27:45.578Z,13.06
2022-10-20T11:28:45.601Z,13.09
2022-10-20T11:29:45.549Z,13.22
2022-10-20T11:30:45.553Z,13.55
2022-10-20T11:31:45.519Z,13.77
2022-10-20T11:32:45.513Z,14.01
2022-10-20T11:33:45.508Z,14.19
2022-10-20T11:34:45.507Z,14.17
2022-10-20T11:35:45.466Z,14.31
2022-10-20T11:36:45.465Z,14.50
2022-10-20T11:37:45.445Z,14.52
2022-10-20T11:38:45.478Z,14.56
2022-10-20T11:39:45.433Z,14.68
2022-10-20T11:40:45.403Z,14.61
2022-10-20T11:41:45.398Z,14.53
2022-10-20T11:42:45.383Z,14.67
2022-10-20T11:43:45.359Z,14.99
2022-10-20T11:44:45.413Z,15.28
2022-10-20T11:45:45.331Z,15.48
2022-10-20T11:46:45.338Z,15.46
2022-10-20T11:47:45.314Z,15.60
2022-10-20T11:48:45.310Z,15.43
2022-10-20T11:49:45.302Z,15.33
2022-10-20T11:50:45.285Z,15.13
2022-10-20T11:51:45.260Z,14.80
2022-10-20T11:52:45.271Z,14.54
2022-10-20T11:53:45.232Z,14.72
2022-10-20T11:54:45.219Z,14.84
2022-10-20T11:55:45.217Z,15.02
2022-10-20T11:56:45.189Z,15.06
2022-10-20T11:57:45.208Z,15.33
2022-10-20T11:58:45.167Z,15.19
2022-10-20T11:59:45.147Z,15.08
2022-10-20T12:00:45.168Z,15.15
2022-10-20T12:01:45.177Z,15.42
2022-10-20T12:02:45.132Z,15.51
2022-10-20T12:03:45.134Z,15.57
2022-10-20T12:04:45.104Z,15.45
2022-10-20T12:05:45.068Z,15.60
2022-10-20T12:06:45.096Z,15.72
2022-10-20T12:07:45.054Z,15.76
2022-10-20T12:08:45.126Z,16.00
2022-10-20T12:09:45.057Z,15.81
2022-10-20T12:10:45.072Z,15.56
2022-10-20T12:11:45.245Z,15.57
2022-10-20T12:12:44.986Z,15.70
2022-10-20T12:13:45.012Z,16.03
2022-10-20T12:14:44.962Z,16.06
2022-10-20T12:15:44.934Z,16.25
2022-10-20T12:16:44.928Z,16.25
2022-10-20T12:17:44.923Z,16.22
2022-10-20T12:18:44.906Z,16.26
2022-10-20T12:19:44.959Z,16.11
2022-10-20T12:20:44.878Z,16.09
2022-10-20T12:21:44.860Z,16.22
2022-10-20T12:22:44.858Z,16.42
2022-10-20T12:23:44.828Z,16.56
2022-10-20T12:24:44.882Z,16.59
2022-10-20T12:25:44.862Z,16.52
2022-10-20T12:26:44.937Z,16.25
2022-10-20T12:27:44.782Z,16.20
2022-10-20T12:28:44.777Z,16.04
2022-10-20T12:29:44.765Z,16.09
2022-10-20T12:30:44.757Z,16.11
2022-10-20T12:31:44.721Z,15.93
2022-10-20T12:32:44.718Z,15.94
2022-10-20T12:33:44.728Z,15.75
2022-10-20T12:34:44.699Z,15.85
2022-10-20T12:35:44.681Z,15.84
2022-10-20T12:36:44.665Z,15.88
2022-10-20T12:37:46.283Z,15.99
2022-10-20T12:38:44.645Z,16.31
2022-10-20T12:39:44.687Z,16.48
2022-10-20T12:40:44.622Z,16.44
2022-10-20T12:41:44.592Z,16.42
2022-10-20T12:42:44.581Z,16.65
2022-10-20T12:43:44.574Z,16.65
2022-10-20T12:44:44.572Z,16.73
2022-10-20T12:45:44.554Z,17.04
2022-10-20T12:46:44.527Z,17.36
2022-10-20T12:47:44.512Z,17.38
2022-10-20T12:48:44.507Z,17.23
2022-10-20T12:49:44.503Z,17.29
2022-10-20T12:50:44.475Z,17.22
2022-10-20T12:51:44.488Z,17.07
2022-10-20T12:52:44.458Z,17.13
2022-10-20T12:53:44.436Z,17.30
2022-10-20T12:54:48.442Z,17.44
2022-10-20T12:55:44.412Z,17.57
2022-10-20T12:56:44.442Z,17.92
2022-10-20T12:57:44.381Z,17.97
2022-10-20T12:58:44.373Z,17.63
2022-10-20T12:59:44.378Z,17.71
2022-10-20T13:00:44.388Z,17.78
2022-10-20T13:01:44.406Z,17.76
2022-10-20T13:02:44.318Z,17.62
2022-10-20T13:03:44.309Z,17.74
2022-10-20T13:04:45.461Z,17.71
2022-10-20T13:05:44.290Z,17.95
2022-10-20T13:06:44.275Z,17.82
2022-10-20T13:07:44.272Z,17.48
2022-10-20T13:08:44.269Z,17.40
2022-10-20T13:09:44.261Z,17.41
2022-10-20T13:10:44.233Z,17.29
2022-10-20T13:11:44.198Z,17.35